Impacts METAR Board INFO
IDs:

KJAN - Jackson/Evers Intl, MS, US

Updated at: 2205 UTC 19 Feb 2018
Potential Impact None Slight Moderate High
Time19/10Z 19/11Z 19/12Z 19/13Z 19/14Z 19/15Z 19/16Z 19/17Z 19/18Z 19/19Z 19/20Z 19/21Z 19/22Z
VIS7 8 8 6 7 10 10 10 10 10 10 10 10
CIG6 9 15 8 -- 13 25 43 -- -- 60 65 70
CoverOVCBKNBKNOVCSCTBKNOVCBKNSCTSCTBKNBKNBKN
FltCatIFRIFRMVFRIFRVFRMVFRMVFRVFRVFRVFRVFRVFRVFR
WX------BR------------------
WDir170150150160140160180180180180200190170
WSpd10 6 7 4 10 12 10 12 14 14 10 14 14
WGst-- -- -- -- -- -- -- -- -- -- -- 21 --
Raw hourly METARs
KJAN 190954Z 17010KT 7SM OVC006 17/16 A3012 RMK AO2 SLP197 T01670161
KJAN 191054Z 15006KT 8SM BKN009 BKN017 16/16 A3013 RMK AO2 CIG 007V012 SLP200 T01610161
KJAN 191154Z 15007KT 8SM BKN015 17/16 A3013 RMK AO2 SLP201 70002 T01670161 10172 20139 51008
KJAN 191301Z 16004KT 6SM BR OVC008 17/17 A3015 RMK AO2 CIG 007V011 T01670167
KJAN 191403Z 14010KT 7SM SCT015 18/18 A3016 RMK AO2 T01830178
KJAN 191504Z 16012KT 10SM BKN013 BKN019 20/18 A3017 RMK AO2 T02000178
KJAN 191601Z 18010KT 10SM SCT019 BKN025 OVC036 22/18 A3017 RMK AO2 T02220178
KJAN 191654Z 18012KT 10SM FEW024 SCT030 BKN043 24/18 A3016 RMK AO2 SLP210 T02390178
KJAN 191754Z 18014KT 10SM SCT036 SCT047 26/16 A3013 RMK AO2 SLP199 T02560156 10256 20161 58012
KJAN 191854Z 18014KT 10SM SCT055 27/14 A3010 RMK AO2 SLP190 T02720139
KJAN 191954Z 20010KT 10SM BKN060 27/13 A3008 RMK AO2 SLP181 T02720133
KJAN 192054Z 19014G21KT 10SM BKN065 26/14 A3007 RMK AO2 PK WND 18027/2031 SLP179 T02610139 56021
KJAN 192154Z 17014KT 10SM BKN070 27/13 A3006 RMK AO2 SLP175 T02670133